Gardner, CO (81040)

1:40 PM MDT on August 27, 2014 (GMT -0600)
Casa de Kestrel, Gardner, CO | Change Station
CLOSE
Current Station
Personal Weather Station
Location: Gardner, CO
Elevation: 7014 ft
Nearby Weather Stations

Elev 7014 ft 37.78 °N, 105.17 °W | Updated 11 minutes ago

Partly Cloudy
Partly Cloudy
72.5 °F
Feels Like 77 °F
N
4.7
Wind Variable Wind from SW

Today
High -- | Low -- °F
--% Chance of Precip.
Yesterday
High -- | Low -- °F
Precip. -- in
6:26 AM 7:37 PM
Waxing Crescent, 4% visible
Pressure 30.11 in
Visibility 10.0 miles
Clouds Scattered Clouds 9500 ft
Heat Index 77 °F
Dew Point 50 °F
Humidity 45%
Rainfall 0.00 in
Snow Depth 0 in , 0 in
UV 9 out of 12
Pollen 9.70 out of 12
Air Quality Not available.
Flu Activity Not available.
METAR K1V6 271930Z AUTO 26016G21KT 10SM SCT095 30/06 A3011 RMK AO2 LTG DSNT W AND NW

More Conditions Fewer Conditions

Pressure 30.11 in
Visibility 10.0 miles
Clouds Scattered Clouds 9500 ft
Heat Index 77 °F
Dew Point 50 °F
Humidity 45%
Rainfall 0.00 in
Snow Depth 0 in , 0 in
UV 9 out of 12
Pollen 9.70 out of 12
Air Quality Not available.
Flu Activity Not available.
METAR K1V6 271930Z AUTO 26016G21KT 10SM SCT095 30/06 A3011 RMK AO2 LTG DSNT W AND NW

More Conditions Fewer Conditions

10-Day Weather Forecast

Almanac

Astronomy

Aug. 27, 2014 Rise Set
Actual Time 6:26 AM MDT 7:37 PM MDT
Civil Twilight 5:59 AM MDT 8:04 PM MDT
Nautical Twilight 5:27 AM MDT 8:36 PM MDT
Astronomical Twilight 4:53 AM MDT 9:10 PM MDT
Moon 8:22 AM MDT 8:34 PM MDT
Length of Visible Light 14h 04m
Length of Day
13h 10m
Tomorrow will be 2m 17s shorter.
Waxing Crescent, 4% of the Moon is Illuminated
Today
Waxing Crescent
Sep 2
First Quarter
Sep 8
Full
Sep 15
Last Quarter
Sep 24
New

Today's Extremes

State Highs State Lows

Community

WunderPhotos

Upload Photos

1,747,771 photos uploaded!

Nearby

Snow Depth

Station Depth Elevation
Medano Pass 0 in 9620 ft
Ute Creek 0 in 10650 ft
Upper San Juan 0 in 10130 ft
Rough And Tumble 1 in 10360 ft
Brumley 0 in 10600 ft

Earthquake Activity

City Distance Mag. Time & Date
No recent earthquake activity has been reported nearby.
Minimum magnitude displayed is 2.5.

Coastal Water Temperatures

Place Temperature
No Stations Reporting

Nearby Weather Stations